createdAt,value
2023-09-11T00:02:18.079Z,21.43
2023-09-11T00:04:44.842Z,21.43
2023-09-11T00:07:11.578Z,21.43
2023-09-11T00:09:38.320Z,21.43
2023-09-11T00:12:05.040Z,21.44
2023-09-11T00:14:31.830Z,21.43
2023-09-11T00:16:58.616Z,21.43
2023-09-11T00:19:25.376Z,21.43
2023-09-11T00:21:52.129Z,21.42
2023-09-11T00:24:18.874Z,21.39
2023-09-11T00:26:45.639Z,21.42
2023-09-11T00:29:12.386Z,21.42
2023-09-11T00:31:39.120Z,21.42
2023-09-11T00:34:05.868Z,21.42
2023-09-11T00:36:32.599Z,21.39
2023-09-11T00:38:59.355Z,21.39
2023-09-11T00:41:26.301Z,21.39
2023-09-11T00:43:53.135Z,21.40
2023-09-11T00:46:19.924Z,21.39
2023-09-11T00:48:46.792Z,21.40
2023-09-11T00:51:13.532Z,21.40
2023-09-11T00:53:40.282Z,21.37
2023-09-11T00:56:07.015Z,21.37
2023-09-11T00:58:33.760Z,21.39
2023-09-11T01:01:00.555Z,21.36
2023-09-11T01:03:27.437Z,21.34
2023-09-11T01:05:54.227Z,21.39
2023-09-11T01:08:20.977Z,21.36
2023-09-11T01:10:47.951Z,21.37
2023-09-11T01:13:14.687Z,21.36
2023-09-11T01:15:41.433Z,21.34
2023-09-11T01:18:08.315Z,21.34
2023-09-11T01:20:35.248Z,21.36
2023-09-11T01:23:02.011Z,21.36
2023-09-11T01:25:28.793Z,21.37
2023-09-11T01:27:55.497Z,21.36
2023-09-11T01:30:22.232Z,21.36
2023-09-11T01:32:49.116Z,21.33
2023-09-11T01:35:15.944Z,21.33
2023-09-11T01:37:42.663Z,21.32
2023-09-11T01:40:09.389Z,21.33
2023-09-11T01:42:36.866Z,21.34
2023-09-11T01:45:03.607Z,21.33
2023-09-11T01:47:30.427Z,21.30
2023-09-11T01:49:57.166Z,21.32
2023-09-11T01:52:23.875Z,21.30
2023-09-11T01:54:50.604Z,21.29
2023-09-11T01:57:17.312Z,21.30
2023-09-11T01:59:44.035Z,21.30
2023-09-11T02:02:10.786Z,21.29
2023-09-11T02:04:37.509Z,21.32
2023-09-11T02:07:04.468Z,21.33
2023-09-11T02:09:31.201Z,21.29
2023-09-11T02:11:57.941Z,21.29
2023-09-11T02:14:24.713Z,21.29
2023-09-11T02:16:51.671Z,21.27
2023-09-11T02:19:18.365Z,21.27
2023-09-11T02:21:45.075Z,21.29
2023-09-11T02:24:11.765Z,21.27
2023-09-11T02:26:38.491Z,21.26
2023-09-11T02:29:05.243Z,21.29
2023-09-11T02:31:31.975Z,21.27
2023-09-11T02:33:58.700Z,21.26
2023-09-11T02:36:25.422Z,21.26
2023-09-11T02:38:52.413Z,21.24
2023-09-11T02:41:19.208Z,21.24
2023-09-11T02:43:45.967Z,21.27
2023-09-11T02:46:12.737Z,21.24
2023-09-11T02:48:39.921Z,21.24
2023-09-11T02:51:07.214Z,21.23
2023-09-11T02:53:33.926Z,21.23
2023-09-11T02:56:00.661Z,21.23
2023-09-11T02:58:27.384Z,21.23
2023-09-11T03:00:54.122Z,21.23
2023-09-11T03:03:20.996Z,21.22
2023-09-11T03:05:47.837Z,21.20
2023-09-11T03:08:14.577Z,21.22
2023-09-11T03:10:41.325Z,21.22
2023-09-11T03:13:08.043Z,21.19
2023-09-11T03:15:35.013Z,21.19
2023-09-11T03:18:01.822Z,21.23
2023-09-11T03:20:28.663Z,21.18
2023-09-11T03:22:55.447Z,21.18
2023-09-11T03:25:22.341Z,21.16
2023-09-11T03:27:49.072Z,21.18
2023-09-11T03:30:15.806Z,21.16
2023-09-11T03:32:42.583Z,21.18
2023-09-11T03:35:09.362Z,21.18
2023-09-11T03:37:36.076Z,21.18
2023-09-11T03:40:02.796Z,21.18
2023-09-11T03:42:29.505Z,21.18
2023-09-11T03:44:56.227Z,21.14
2023-09-11T03:47:23.230Z,21.14
2023-09-11T03:49:49.983Z,21.16
2023-09-11T03:52:16.920Z,21.14
2023-09-11T03:54:43.838Z,21.16
2023-09-11T03:57:10.725Z,21.12
2023-09-11T03:59:37.544Z,21.13
2023-09-11T04:02:04.277Z,21.12
2023-09-11T04:04:31.162Z,21.12
2023-09-11T04:06:57.943Z,21.13
2023-09-11T04:09:24.860Z,21.10
2023-09-11T04:11:51.602Z,21.10
2023-09-11T04:14:18.347Z,21.13
2023-09-11T04:16:45.288Z,21.10
2023-09-11T04:19:12.015Z,21.12
2023-09-11T04:21:38.722Z,21.06
2023-09-11T04:24:05.461Z,21.12
2023-09-11T04:26:32.188Z,21.07
2023-09-11T04:28:58.898Z,21.06
2023-09-11T04:31:25.857Z,21.04
2023-09-11T04:33:52.620Z,21.07
2023-09-11T04:36:19.348Z,21.06
2023-09-11T04:38:46.062Z,21.07
2023-09-11T04:41:12.808Z,21.07
2023-09-11T04:43:39.508Z,21.06
2023-09-11T04:46:06.244Z,21.06
2023-09-11T04:48:33.300Z,21.06
2023-09-11T04:51:00.144Z,21.07
2023-09-11T04:53:26.921Z,21.04
2023-09-11T04:55:53.663Z,21.04
2023-09-11T04:58:20.385Z,21.04
2023-09-11T05:00:47.113Z,21.03
2023-09-11T05:03:14.191Z,21.03
2023-09-11T05:05:41.054Z,21.02
2023-09-11T05:08:07.798Z,21.03
2023-09-11T05:10:34.552Z,21.03
2023-09-11T05:13:01.280Z,21.02
2023-09-11T05:15:27.971Z,21.02
2023-09-11T05:17:54.798Z,21.02
2023-09-11T05:20:21.604Z,21.00
2023-09-11T05:22:48.301Z,20.99
2023-09-11T05:25:15.007Z,21.02
2023-09-11T05:27:41.717Z,20.99
2023-09-11T05:30:08.629Z,20.99
2023-09-11T05:32:35.397Z,20.99
2023-09-11T05:35:02.171Z,20.98
2023-09-11T05:37:28.910Z,20.98
2023-09-11T05:39:55.661Z,20.96
2023-09-11T05:42:22.425Z,20.95
2023-09-11T05:44:49.157Z,20.99
2023-09-11T05:47:15.898Z,20.98
2023-09-11T05:49:42.613Z,20.98
2023-09-11T05:52:09.438Z,20.95
2023-09-11T05:54:36.204Z,20.93
2023-09-11T05:57:02.947Z,20.93
2023-09-11T05:59:29.687Z,20.95
2023-09-11T06:01:56.438Z,20.95
2023-09-11T06:04:23.197Z,20.95
2023-09-11T06:06:49.931Z,20.93
2023-09-11T06:09:16.649Z,20.82
2023-09-11T06:11:43.465Z,20.13
2023-09-11T06:14:10.285Z,20.24
2023-09-11T06:16:37.003Z,20.37
2023-09-11T06:19:04.033Z,20.38
2023-09-11T06:21:30.948Z,20.27
2023-09-11T06:23:57.810Z,20.30
2023-09-11T06:26:24.658Z,20.48
2023-09-11T06:28:51.615Z,20.56
2023-09-11T06:31:18.353Z,20.55
2023-09-11T06:33:45.260Z,20.59
2023-09-11T06:36:12.282Z,20.61
2023-09-11T06:38:39.824Z,20.62
2023-09-11T06:41:06.787Z,20.64
2023-09-11T06:43:33.481Z,20.65
2023-09-11T06:46:00.467Z,20.68
2023-09-11T06:48:27.259Z,20.67
2023-09-11T06:50:54.063Z,20.68
2023-09-11T06:53:21.065Z,20.69
2023-09-11T06:55:47.825Z,20.71
2023-09-11T06:58:14.561Z,20.72
2023-09-11T07:00:41.257Z,20.69
2023-09-11T07:03:08.268Z,20.72
2023-09-11T07:05:35.126Z,20.69
2023-09-11T07:08:01.856Z,20.73
2023-09-11T07:10:39.913Z,20.72
2023-09-11T07:13:07.303Z,20.71
2023-09-11T07:15:34.148Z,20.72
2023-09-11T07:18:00.994Z,20.75
2023-09-11T07:20:27.834Z,20.72
2023-09-11T07:22:54.660Z,20.72
2023-09-11T07:25:21.407Z,20.75
2023-09-11T07:27:48.111Z,20.73
2023-09-11T07:30:14.819Z,20.72
2023-09-11T07:32:42.313Z,20.73
2023-09-11T07:35:09.289Z,20.75
2023-09-11T07:37:36.005Z,20.75
2023-09-11T07:40:02.792Z,20.67
2023-09-11T07:42:29.511Z,20.59
2023-09-11T07:44:56.223Z,20.59
2023-09-11T07:47:23.182Z,20.54
2023-09-11T07:49:49.943Z,20.54
2023-09-11T07:52:16.642Z,20.48
2023-09-11T07:54:43.381Z,20.51
2023-09-11T07:57:10.129Z,20.61
2023-09-11T07:59:36.875Z,20.62
2023-09-11T08:02:03.623Z,20.65
2023-09-11T08:04:30.644Z,20.64
2023-09-11T08:06:57.402Z,20.64
2023-09-11T08:09:24.149Z,20.62
2023-09-11T08:11:50.934Z,20.55
2023-09-11T08:14:17.757Z,20.59
2023-09-11T08:16:44.580Z,20.56
2023-09-11T08:19:11.335Z,20.56
2023-09-11T08:21:38.054Z,20.54
2023-09-11T08:24:04.810Z,20.55
2023-09-11T08:26:31.823Z,20.56
2023-09-11T08:28:58.573Z,20.58
2023-09-11T08:31:25.390Z,20.61
2023-09-11T08:33:55.599Z,20.59
2023-09-11T08:36:22.805Z,20.61
2023-09-11T08:38:49.612Z,20.68
2023-09-11T08:41:16.348Z,20.71
2023-09-11T08:43:43.061Z,20.73
2023-09-11T08:46:09.864Z,20.73
2023-09-11T08:48:36.788Z,20.75
2023-09-11T08:51:03.657Z,20.76
2023-09-11T08:53:30.412Z,20.76
2023-09-11T08:55:57.168Z,20.81
2023-09-11T08:58:24.126Z,20.79
2023-09-11T09:00:50.839Z,20.82
2023-09-11T09:03:17.837Z,20.82
2023-09-11T09:05:44.611Z,20.85
2023-09-11T09:08:11.317Z,20.83
2023-09-11T09:10:38.029Z,20.83
2023-09-11T09:13:04.755Z,20.86
2023-09-11T09:15:31.484Z,20.86
2023-09-11T09:17:58.331Z,20.89
2023-09-11T09:20:25.127Z,20.88
2023-09-11T09:22:51.834Z,20.91
2023-09-11T09:25:18.555Z,20.92
2023-09-11T09:27:45.279Z,20.91
2023-09-11T09:30:12.074Z,20.93
2023-09-11T09:32:38.837Z,20.95
2023-09-11T09:35:05.585Z,20.98
2023-09-11T09:37:32.272Z,20.95
2023-09-11T09:39:58.950Z,20.99
2023-09-11T09:42:25.628Z,21.00
2023-09-11T09:44:52.605Z,21.00
2023-09-11T09:47:19.328Z,21.00
2023-09-11T09:49:46.058Z,21.02
2023-09-11T09:52:12.807Z,21.04
2023-09-11T09:54:40.303Z,21.03
2023-09-11T09:57:07.142Z,21.06
2023-09-11T09:59:33.905Z,21.04
2023-09-11T10:02:00.702Z,21.09
2023-09-11T10:04:27.645Z,21.09
2023-09-11T10:06:54.345Z,21.09
2023-09-11T10:09:21.039Z,21.12
2023-09-11T10:11:48.014Z,21.09
2023-09-11T10:14:14.730Z,21.10
2023-09-11T10:16:41.579Z,21.13
2023-09-11T10:19:08.422Z,21.14
2023-09-11T10:21:35.161Z,21.13
2023-09-11T10:24:02.000Z,21.16
2023-09-11T10:26:28.798Z,21.18
2023-09-11T10:28:55.537Z,21.19
2023-09-11T10:31:22.258Z,21.18
2023-09-11T10:33:49.092Z,21.19
2023-09-11T10:36:15.992Z,21.20
2023-09-11T10:38:42.725Z,21.22
2023-09-11T10:41:09.545Z,21.19
2023-09-11T10:43:36.302Z,21.22
2023-09-11T10:46:03.133Z,21.23
2023-09-11T10:48:29.986Z,21.23
2023-09-11T10:50:56.812Z,21.24
2023-09-11T10:53:23.514Z,21.24
2023-09-11T10:55:50.211Z,21.27
2023-09-11T10:58:17.593Z,21.29
2023-09-11T11:00:44.310Z,21.29
2023-09-11T11:03:11.409Z,21.29
2023-09-11T11:05:38.245Z,21.29
2023-09-11T11:08:05.049Z,21.30
2023-09-11T11:10:31.808Z,21.32
2023-09-11T11:12:58.607Z,21.32
2023-09-11T11:15:25.615Z,21.33
2023-09-11T11:17:52.615Z,21.36
2023-09-11T11:20:19.309Z,21.34
2023-09-11T11:22:46.204Z,21.34
2023-09-11T11:25:13.233Z,21.37
2023-09-11T11:27:40.049Z,21.36
2023-09-11T11:30:06.800Z,21.39
2023-09-11T11:32:33.775Z,21.39
2023-09-11T11:35:00.508Z,21.39
2023-09-11T11:37:27.468Z,21.40
2023-09-11T11:39:54.280Z,21.40
2023-09-11T11:42:21.048Z,21.43
2023-09-11T11:44:47.859Z,21.43
2023-09-11T11:47:14.603Z,21.43
2023-09-11T11:49:41.355Z,21.44
2023-09-11T11:52:08.074Z,21.44
2023-09-11T11:54:34.838Z,21.43
2023-09-11T11:57:01.629Z,21.46
2023-09-11T11:59:28.362Z,21.46
2023-09-11T12:01:55.070Z,21.46
2023-09-11T12:04:36.449Z,21.46
2023-09-11T12:07:09.485Z,21.49
2023-09-11T12:09:36.431Z,21.50
2023-09-11T12:12:03.209Z,21.50
2023-09-11T12:14:29.923Z,21.51
2023-09-11T12:16:56.892Z,21.50
2023-09-11T12:19:23.620Z,21.53
2023-09-11T12:21:50.327Z,21.53
2023-09-11T12:24:17.036Z,21.50
2023-09-11T12:26:43.908Z,21.53
2023-09-11T12:29:10.757Z,21.57
2023-09-11T12:31:37.458Z,21.58
2023-09-11T12:34:04.352Z,21.60
2023-09-11T12:36:31.071Z,21.58
2023-09-11T12:38:58.016Z,21.63
2023-09-11T12:41:24.768Z,21.63
2023-09-11T12:43:51.523Z,21.63
2023-09-11T12:46:18.286Z,21.65
2023-09-11T12:48:45.283Z,21.65
2023-09-11T12:51:12.466Z,21.73
2023-09-11T12:53:39.295Z,21.71
2023-09-11T12:56:06.022Z,21.77
2023-09-11T12:58:32.750Z,21.80
2023-09-11T13:00:59.583Z,21.80
2023-09-11T13:03:26.435Z,21.81
2023-09-11T13:05:53.484Z,21.83
2023-09-11T13:08:20.644Z,21.77
2023-09-11T13:10:47.344Z,21.75
2023-09-11T13:13:25.006Z,21.74
2023-09-11T13:15:56.208Z,21.74
2023-09-11T13:18:22.990Z,21.77
2023-09-11T13:20:49.811Z,21.77
2023-09-11T13:23:16.568Z,21.78
2023-09-11T13:25:43.276Z,21.77
2023-09-11T13:28:10.013Z,21.80
2023-09-11T13:30:36.966Z,21.84
2023-09-11T13:33:03.873Z,21.85
2023-09-11T13:35:30.722Z,21.85
2023-09-11T13:37:57.439Z,21.85
2023-09-11T13:40:24.713Z,21.87
2023-09-11T13:42:51.815Z,21.91
2023-09-11T13:45:18.568Z,21.93
2023-09-11T13:47:45.676Z,21.91
2023-09-11T13:50:12.652Z,21.93
2023-09-11T13:52:39.367Z,21.90
2023-09-11T13:55:06.088Z,21.91
2023-09-11T13:57:32.782Z,21.91
2023-09-11T13:59:59.718Z,21.93
2023-09-11T14:02:26.726Z,21.94
2023-09-11T14:04:53.557Z,21.97
2023-09-11T14:07:20.478Z,22.01
2023-09-11T14:09:47.397Z,22.02
2023-09-11T14:12:14.145Z,22.01
2023-09-11T14:14:40.887Z,22.02
2023-09-11T14:17:07.636Z,22.05
2023-09-11T14:19:35.232Z,22.06
2023-09-11T14:22:01.938Z,22.06
2023-09-11T14:24:28.643Z,22.11
2023-09-11T14:26:55.365Z,22.11
2023-09-11T14:29:22.269Z,22.12
2023-09-11T14:31:48.967Z,22.12
2023-09-11T14:34:15.710Z,22.12
2023-09-11T14:36:42.636Z,22.12
2023-09-11T14:39:09.389Z,22.16
2023-09-11T14:41:36.137Z,22.14
2023-09-11T14:44:02.931Z,22.12
2023-09-11T14:46:29.687Z,22.14
2023-09-11T14:48:56.755Z,22.15
2023-09-11T14:51:23.602Z,22.18
2023-09-11T14:53:51.455Z,22.19
2023-09-11T14:56:18.233Z,22.21
2023-09-11T14:58:44.938Z,22.18
2023-09-11T15:01:11.753Z,22.24
2023-09-11T15:03:38.708Z,22.22
2023-09-11T15:06:05.620Z,22.21
2023-09-11T15:08:32.693Z,22.25
2023-09-11T15:10:59.441Z,22.28
2023-09-11T15:13:26.157Z,22.28
2023-09-11T15:15:52.919Z,22.28
2023-09-11T15:18:19.773Z,22.32
2023-09-11T15:20:46.897Z,22.31
2023-09-11T15:23:14.889Z,22.31
2023-09-11T15:25:41.807Z,22.32
2023-09-11T15:28:08.501Z,22.35
2023-09-11T15:30:35.433Z,22.38
2023-09-11T15:33:02.257Z,22.38
2023-09-11T15:35:28.979Z,22.42
2023-09-11T15:37:55.700Z,22.41
2023-09-11T15:40:22.412Z,22.39
2023-09-11T15:42:49.256Z,22.43
2023-09-11T15:45:15.995Z,22.45
2023-09-11T15:47:42.776Z,22.46
2023-09-11T15:50:09.583Z,22.46
2023-09-11T15:52:36.314Z,22.48
2023-09-11T15:55:03.218Z,22.49
2023-09-11T15:57:29.978Z,22.48
2023-09-11T15:59:56.762Z,22.45
2023-09-11T16:02:23.548Z,22.43
2023-09-11T16:04:50.396Z,22.42
2023-09-11T16:07:17.168Z,22.42
2023-09-11T16:09:44.075Z,22.42
2023-09-11T16:12:10.906Z,22.41
2023-09-11T16:14:37.653Z,22.43
2023-09-11T16:17:04.356Z,22.41
2023-09-11T16:19:31.074Z,22.43
2023-09-11T16:21:57.855Z,22.46
2023-09-11T16:24:24.642Z,22.48
2023-09-11T16:26:51.654Z,22.51
2023-09-11T16:29:18.561Z,22.51
2023-09-11T16:31:45.286Z,22.45
2023-09-11T16:34:12.320Z,22.49
2023-09-11T16:36:39.051Z,22.49
2023-09-11T16:39:05.803Z,22.49
2023-09-11T16:41:32.551Z,22.49
2023-09-11T16:43:59.472Z,22.52
2023-09-11T16:46:26.428Z,22.53
2023-09-11T16:48:53.621Z,22.49
2023-09-11T16:51:20.423Z,22.48
2023-09-11T16:53:47.340Z,22.48
2023-09-11T16:56:14.216Z,22.48
2023-09-11T16:58:41.418Z,22.48
2023-09-11T17:01:08.513Z,22.48
2023-09-11T17:03:35.593Z,22.45
2023-09-11T17:06:02.511Z,22.42
2023-09-11T17:08:29.289Z,22.41
2023-09-11T17:10:56.006Z,22.42
2023-09-11T17:13:22.703Z,22.46
2023-09-11T17:15:49.412Z,22.45
2023-09-11T17:18:16.237Z,22.41
2023-09-11T17:20:42.991Z,22.39
2023-09-11T17:23:09.722Z,22.39
2023-09-11T17:25:36.428Z,22.33
2023-09-11T17:28:03.173Z,22.31
2023-09-11T17:30:29.921Z,22.26
2023-09-11T17:32:56.812Z,22.25
2023-09-11T17:35:23.829Z,22.26
2023-09-11T17:37:50.559Z,22.21
2023-09-11T17:40:17.500Z,22.19
2023-09-11T17:42:44.228Z,22.12
2023-09-11T17:45:10.991Z,22.11
2023-09-11T17:47:37.834Z,22.11
2023-09-11T17:50:04.557Z,22.08
2023-09-11T17:52:31.341Z,22.05
2023-09-11T17:54:58.092Z,22.01
2023-09-11T17:57:25.073Z,22.00
2023-09-11T17:59:54.539Z,21.94
2023-09-11T18:02:21.328Z,21.90
2023-09-11T18:04:49.073Z,21.94
2023-09-11T18:07:15.872Z,21.90
2023-09-11T18:09:42.553Z,21.88
2023-09-11T18:12:09.339Z,21.85
2023-09-11T18:14:36.069Z,21.78
2023-09-11T18:17:02.809Z,21.80
2023-09-11T18:19:29.547Z,21.75
2023-09-11T18:21:56.268Z,21.73
2023-09-11T18:24:23.042Z,21.73
2023-09-11T18:26:49.836Z,21.64
2023-09-11T18:29:16.574Z,21.54
2023-09-11T18:31:43.268Z,21.63
2023-09-11T18:34:10.092Z,21.58
2023-09-11T18:36:36.886Z,21.54
2023-09-11T18:39:03.625Z,21.53
2023-09-11T18:41:30.373Z,21.46
2023-09-11T18:43:57.091Z,21.54
2023-09-11T18:46:24.002Z,21.61
2023-09-11T18:48:50.821Z,21.64
2023-09-11T18:51:17.674Z,21.67
2023-09-11T18:53:44.597Z,21.67
2023-09-11T18:56:11.321Z,21.70
2023-09-11T18:58:38.023Z,21.73
2023-09-11T19:01:04.724Z,21.71
2023-09-11T19:03:31.768Z,21.73
2023-09-11T19:05:58.578Z,21.73
2023-09-11T19:08:25.301Z,21.75
2023-09-11T19:10:52.005Z,21.75
2023-09-11T19:13:18.904Z,21.74
2023-09-11T19:15:45.832Z,21.77
2023-09-11T19:18:12.609Z,21.74
2023-09-11T19:20:39.452Z,21.73
2023-09-11T19:23:06.175Z,21.77
2023-09-11T19:25:32.863Z,21.74
2023-09-11T19:27:59.558Z,21.74
2023-09-11T19:30:26.664Z,21.78
2023-09-11T19:32:53.544Z,21.75
2023-09-11T19:35:20.387Z,21.75
2023-09-11T19:37:47.081Z,21.78
2023-09-11T19:40:14.045Z,21.77
2023-09-11T19:42:40.744Z,21.74
2023-09-11T19:45:07.472Z,21.77
2023-09-11T19:47:34.245Z,21.77
2023-09-11T19:50:01.200Z,21.77
2023-09-11T19:52:27.958Z,21.77
2023-09-11T19:54:54.665Z,21.77
2023-09-11T19:57:21.447Z,21.78
2023-09-11T19:59:48.434Z,21.80
2023-09-11T20:02:15.164Z,21.78
2023-09-11T20:04:41.887Z,21.78
2023-09-11T20:07:08.582Z,21.75
2023-09-11T20:09:35.322Z,21.78
2023-09-11T20:12:02.111Z,21.77
2023-09-11T20:14:28.815Z,21.77
2023-09-11T20:16:55.540Z,21.75
2023-09-11T20:19:22.237Z,21.78
2023-09-11T20:21:48.956Z,21.78
2023-09-11T20:24:15.784Z,21.75
2023-09-11T20:26:42.493Z,21.75
2023-09-11T20:29:09.215Z,21.78
2023-09-11T20:31:35.953Z,21.77
2023-09-11T20:34:02.760Z,21.77
2023-09-11T20:36:29.487Z,21.77
2023-09-11T20:38:56.261Z,21.77
2023-09-11T20:41:23.205Z,21.75
2023-09-11T20:43:49.897Z,21.78
2023-09-11T20:46:16.640Z,21.77
2023-09-11T20:48:43.709Z,21.75
2023-09-11T20:51:10.792Z,21.75
2023-09-11T20:53:37.496Z,21.74
2023-09-11T20:56:04.175Z,21.77
2023-09-11T20:58:31.363Z,21.74
2023-09-11T21:00:58.341Z,21.75
2023-09-11T21:03:25.173Z,21.77
2023-09-11T21:05:52.124Z,21.75
2023-09-11T21:08:18.901Z,21.75
2023-09-11T21:10:45.608Z,21.75
2023-09-11T21:13:12.316Z,21.74
2023-09-11T21:15:39.155Z,21.73
2023-09-11T21:18:05.953Z,21.74
2023-09-11T21:20:32.864Z,21.75
2023-09-11T21:22:59.583Z,21.74
2023-09-11T21:25:26.283Z,21.74
2023-09-11T21:27:53.205Z,21.73
2023-09-11T21:30:19.968Z,21.70
2023-09-11T21:32:48.171Z,21.74
2023-09-11T21:35:14.900Z,21.74
2023-09-11T21:37:41.632Z,21.71
2023-09-11T21:40:08.329Z,21.74
2023-09-11T21:42:35.051Z,21.67
2023-09-11T21:45:02.250Z,21.49
2023-09-11T21:47:29.053Z,21.42
2023-09-11T21:49:56.037Z,21.36
2023-09-11T21:52:22.726Z,21.30
2023-09-11T21:54:49.660Z,21.24
2023-09-11T21:57:16.763Z,21.20
2023-09-11T21:59:43.490Z,21.20
2023-09-11T22:02:10.252Z,21.22
2023-09-11T22:04:37.023Z,21.10
2023-09-11T22:07:03.752Z,21.13
2023-09-11T22:09:30.690Z,21.23
2023-09-11T22:11:57.391Z,21.32
2023-09-11T22:14:24.322Z,21.36
2023-09-11T22:16:51.249Z,21.37
2023-09-11T22:19:17.942Z,21.42
2023-09-11T22:21:44.889Z,21.40
2023-09-11T22:24:11.847Z,21.40
2023-09-11T22:26:38.793Z,21.43
2023-09-11T22:29:05.493Z,21.43
2023-09-11T22:31:32.231Z,21.42
2023-09-11T22:33:59.152Z,21.42
2023-09-11T22:36:25.959Z,21.42
2023-09-11T22:38:52.656Z,21.42
2023-09-11T22:41:19.339Z,21.42
2023-09-11T22:43:46.033Z,21.40
2023-09-11T22:46:12.749Z,21.40
2023-09-11T22:48:39.561Z,21.40
2023-09-11T22:51:06.383Z,21.40
2023-09-11T22:53:33.162Z,21.43
2023-09-11T22:55:59.862Z,21.43
2023-09-11T22:58:26.582Z,21.43
2023-09-11T23:00:53.293Z,21.43
2023-09-11T23:03:20.349Z,21.40
2023-09-11T23:05:47.085Z,21.40
2023-09-11T23:08:13.797Z,21.39
2023-09-11T23:10:40.496Z,21.40
2023-09-11T23:13:07.187Z,21.39
2023-09-11T23:15:33.936Z,21.37
2023-09-11T23:18:00.821Z,21.37
2023-09-11T23:20:27.598Z,21.37
2023-09-11T23:22:54.327Z,21.39
2023-09-11T23:25:21.260Z,21.37
2023-09-11T23:27:47.948Z,21.37
2023-09-11T23:30:14.759Z,21.39
2023-09-11T23:32:41.540Z,21.37
2023-09-11T23:35:08.320Z,21.37
2023-09-11T23:37:35.172Z,21.39
2023-09-11T23:40:01.891Z,21.36
2023-09-11T23:42:28.698Z,21.39
2023-09-11T23:44:55.468Z,21.39
2023-09-11T23:47:22.187Z,21.36
2023-09-11T23:49:48.903Z,21.33
2023-09-11T23:52:26.099Z,21.37
2023-09-11T23:54:53.782Z,21.34
2023-09-11T23:57:20.907Z,21.34
2023-09-11T23:59:47.829Z,21.34
